createdAt,value
2019-01-24T00:02:18.964Z,60.45
2019-01-24T00:04:50.402Z,60.45
2019-01-24T00:07:21.758Z,60.48
2019-01-24T00:09:53.021Z,60.46
2019-01-24T00:12:24.297Z,60.44
2019-01-24T00:14:55.726Z,60.44
2019-01-24T00:17:27.243Z,60.44
2019-01-24T00:19:58.430Z,60.43
2019-01-24T00:22:29.752Z,60.42
2019-01-24T00:25:01.998Z,60.41
2019-01-24T00:27:33.296Z,60.40
2019-01-24T00:30:05.559Z,60.42
2019-01-24T00:32:37.368Z,60.42
2019-01-24T00:35:08.984Z,60.42
2019-01-24T00:37:40.215Z,60.44
2019-01-24T00:40:13.446Z,60.40
2019-01-24T00:42:44.716Z,60.43
2019-01-24T00:45:16.145Z,60.41
2019-01-24T00:47:47.535Z,60.40
2019-01-24T00:50:18.902Z,60.44
2019-01-24T00:52:50.250Z,60.42
2019-01-24T00:55:21.573Z,60.42
2019-01-24T00:57:52.813Z,60.43
2019-01-24T01:00:25.935Z,60.43
2019-01-24T01:02:57.183Z,60.46
2019-01-24T01:05:28.604Z,60.45
2019-01-24T01:07:59.811Z,60.46
2019-01-24T01:10:31.037Z,60.47
2019-01-24T01:13:02.391Z,60.50
2019-01-24T01:15:33.670Z,60.48
2019-01-24T01:18:05.137Z,60.52
2019-01-24T01:20:36.374Z,60.48
2019-01-24T01:23:07.632Z,60.47
2019-01-24T01:25:38.904Z,60.48
2019-01-24T01:28:10.122Z,60.43
2019-01-24T01:30:41.415Z,60.44
2019-01-24T01:33:12.772Z,60.42
2019-01-24T01:35:44.035Z,60.44
2019-01-24T01:38:15.234Z,60.43
2019-01-24T01:40:46.685Z,60.44
2019-01-24T01:43:18.339Z,60.42
2019-01-24T01:45:49.577Z,60.43
2019-01-24T01:48:20.948Z,60.41
2019-01-24T01:50:52.283Z,60.40
2019-01-24T01:53:23.601Z,60.41
2019-01-24T01:55:54.851Z,60.42
2019-01-24T01:58:26.133Z,60.41
2019-01-24T02:00:57.349Z,60.41
2019-01-24T02:03:28.583Z,60.41
2019-01-24T02:06:01.886Z,60.44
2019-01-24T02:08:33.147Z,60.41
2019-01-24T02:11:04.322Z,60.42
2019-01-24T02:13:35.547Z,60.43
2019-01-24T02:16:06.995Z,60.45
2019-01-24T02:18:38.309Z,60.47
2019-01-24T02:21:09.591Z,60.45
2019-01-24T02:23:41.807Z,60.44
2019-01-24T02:26:13.169Z,60.44
2019-01-24T02:28:44.488Z,60.43
2019-01-24T02:31:15.689Z,60.40
2019-01-24T02:33:46.937Z,60.41
2019-01-24T02:36:18.308Z,60.44
2019-01-24T02:38:49.603Z,60.44
2019-01-24T02:41:21.029Z,60.44
2019-01-24T02:43:52.266Z,60.42
2019-01-24T02:46:23.433Z,60.43
2019-01-24T02:48:54.749Z,60.42
2019-01-24T02:51:26.082Z,60.40
2019-01-24T02:53:57.371Z,60.42
2019-01-24T02:56:28.560Z,60.39
2019-01-24T02:58:59.793Z,60.38
2019-01-24T03:01:31.272Z,60.36
2019-01-24T03:04:02.684Z,60.37
2019-01-24T03:06:34.066Z,60.37
2019-01-24T03:09:07.553Z,60.37
2019-01-24T03:11:39.082Z,60.36
2019-01-24T03:14:10.346Z,60.35
2019-01-24T03:16:41.571Z,60.38
2019-01-24T03:19:12.931Z,60.37
2019-01-24T03:21:44.174Z,60.35
2019-01-24T03:24:15.445Z,60.38
2019-01-24T03:26:46.881Z,60.40
2019-01-24T03:29:18.592Z,60.41
2019-01-24T03:31:50.256Z,60.41
2019-01-24T03:34:21.770Z,60.42
2019-01-24T03:36:53.203Z,60.44
2019-01-24T03:39:24.426Z,60.45
2019-01-24T03:41:55.654Z,60.45
2019-01-24T03:44:27.101Z,60.47
2019-01-24T03:46:58.298Z,60.46
2019-01-24T03:49:29.522Z,60.47
2019-01-24T03:52:00.771Z,60.45
2019-01-24T03:54:32.009Z,60.42
2019-01-24T03:57:03.847Z,60.44
2019-01-24T03:59:35.290Z,60.42
2019-01-24T04:02:06.815Z,60.38
2019-01-24T04:04:38.139Z,60.38
2019-01-24T04:07:09.420Z,60.40
2019-01-24T04:09:40.645Z,60.42
2019-01-24T04:12:11.976Z,60.45
2019-01-24T04:14:43.190Z,60.44
2019-01-24T04:17:14.378Z,60.44
2019-01-24T04:19:46.680Z,60.43
2019-01-24T04:22:18.072Z,60.44
2019-01-24T04:24:49.955Z,60.42
2019-01-24T04:27:21.520Z,60.45
2019-01-24T04:29:52.957Z,60.43
2019-01-24T04:32:25.123Z,60.42
2019-01-24T04:34:56.497Z,60.41
2019-01-24T04:37:28.804Z,60.39
2019-01-24T04:39:59.969Z,60.35
2019-01-24T04:42:31.277Z,60.36
2019-01-24T04:45:02.529Z,60.34
2019-01-24T04:47:33.692Z,60.34
2019-01-24T04:50:05.782Z,60.34
2019-01-24T04:52:37.111Z,60.33
2019-01-24T04:55:09.928Z,60.32
2019-01-24T04:57:41.117Z,60.29
2019-01-24T05:00:21.649Z,60.27
2019-01-24T05:02:52.796Z,60.19
2019-01-24T05:05:27.982Z,60.17
2019-01-24T05:07:57.236Z,60.19
2019-01-24T05:10:28.482Z,60.17
2019-01-24T05:13:00.013Z,60.17
2019-01-24T05:15:31.271Z,60.17
2019-01-24T05:18:02.567Z,60.14
2019-01-24T05:20:33.868Z,60.11
2019-01-24T05:23:05.184Z,60.10
2019-01-24T05:25:36.422Z,60.04
2019-01-24T05:28:07.641Z,60.06
2019-01-24T05:30:39.005Z,60.05
2019-01-24T05:33:10.263Z,60.03
2019-01-24T05:35:41.420Z,60.02
2019-01-24T05:38:12.638Z,60.03
2019-01-24T05:40:43.948Z,60.03
2019-01-24T05:43:15.254Z,60.05
2019-01-24T05:45:46.540Z,60.00
2019-01-24T05:48:17.727Z,60.01
2019-01-24T05:50:48.981Z,59.97
2019-01-24T05:53:20.212Z,59.97
2019-01-24T05:55:51.535Z,59.97
2019-01-24T05:58:22.735Z,59.96
2019-01-24T06:00:53.950Z,59.93
2019-01-24T06:03:25.149Z,59.97
2019-01-24T06:05:56.408Z,59.91
2019-01-24T06:08:27.735Z,59.97
2019-01-24T06:10:59.053Z,59.95
2019-01-24T06:13:30.247Z,59.95
2019-01-24T06:16:01.622Z,59.93
2019-01-24T06:18:33.557Z,59.97
2019-01-24T06:21:04.927Z,59.97
2019-01-24T06:23:36.234Z,59.94
2019-01-24T06:26:07.519Z,59.91
2019-01-24T06:28:38.897Z,59.89
2019-01-24T06:31:10.072Z,59.88
2019-01-24T06:33:41.524Z,59.83
2019-01-24T06:36:12.769Z,59.83
2019-01-24T06:38:44.901Z,59.85
2019-01-24T06:41:16.242Z,59.84
2019-01-24T06:43:47.467Z,59.81
2019-01-24T06:46:18.700Z,59.79
2019-01-24T06:48:49.910Z,59.78
2019-01-24T06:51:21.223Z,59.81
2019-01-24T06:53:52.615Z,59.79
2019-01-24T06:56:23.845Z,59.74
2019-01-24T06:58:55.182Z,59.74
2019-01-24T07:01:26.350Z,59.76
2019-01-24T07:03:57.624Z,59.68
2019-01-24T07:06:28.872Z,59.73
2019-01-24T07:09:00.215Z,59.75
2019-01-24T07:11:37.747Z,59.72
2019-01-24T07:14:10.410Z,59.66
2019-01-24T07:16:43.251Z,59.72
2019-01-24T07:19:14.594Z,59.74
2019-01-24T07:21:45.923Z,59.78
2019-01-24T07:24:17.192Z,59.76
2019-01-24T07:26:48.468Z,59.64
2019-01-24T07:29:19.862Z,59.65
2019-01-24T07:31:51.189Z,59.66
2019-01-24T07:34:22.405Z,59.63
2019-01-24T07:36:53.736Z,59.63
2019-01-24T07:39:24.933Z,59.62
2019-01-24T07:41:56.204Z,59.63
2019-01-24T07:44:27.438Z,59.61
2019-01-24T07:46:58.846Z,59.63
2019-01-24T07:49:30.080Z,59.63
2019-01-24T07:52:01.731Z,59.59
2019-01-24T07:54:32.945Z,59.62
2019-01-24T07:57:04.188Z,59.65
2019-01-24T07:59:35.871Z,59.62
2019-01-24T08:02:07.155Z,59.63
2019-01-24T08:04:38.427Z,59.59
2019-01-24T08:07:09.738Z,59.57
2019-01-24T08:09:41.183Z,59.54
2019-01-24T08:12:13.427Z,59.57
2019-01-24T08:14:46.693Z,59.58
2019-01-24T08:17:21.402Z,59.58
2019-01-24T08:19:54.382Z,59.58
2019-01-24T08:22:29.791Z,59.54
2019-01-24T08:25:01.278Z,59.55
2019-01-24T08:27:33.366Z,59.52
2019-01-24T08:30:08.711Z,59.54
2019-01-24T08:32:41.974Z,59.54
2019-01-24T08:35:17.100Z,59.48
2019-01-24T08:37:49.963Z,59.48
2019-01-24T08:40:21.548Z,59.44
2019-01-24T08:42:53.047Z,59.44
2019-01-24T08:45:24.372Z,59.46
2019-01-24T08:47:55.632Z,59.42
2019-01-24T08:50:28.232Z,59.39
2019-01-24T08:52:59.855Z,59.39
2019-01-24T08:55:39.263Z,59.34
2019-01-24T08:58:10.950Z,59.31
2019-01-24T09:00:42.303Z,59.36
2019-01-24T09:03:13.476Z,59.40
2019-01-24T09:05:44.697Z,59.35
2019-01-24T09:08:15.991Z,59.35
2019-01-24T09:10:47.267Z,59.32
2019-01-24T09:13:18.470Z,59.33
2019-01-24T09:15:49.794Z,59.37
2019-01-24T09:18:21.303Z,59.36
2019-01-24T09:20:52.544Z,59.35
2019-01-24T09:23:23.863Z,59.33
2019-01-24T09:25:55.134Z,59.33
2019-01-24T09:28:26.451Z,59.35
2019-01-24T09:30:58.056Z,59.34
2019-01-24T09:33:29.448Z,59.35
2019-01-24T09:36:03.430Z,59.38
2019-01-24T09:38:34.777Z,59.33
2019-01-24T09:41:06.199Z,59.32
2019-01-24T09:43:37.529Z,59.16
2019-01-24T09:46:08.821Z,59.18
2019-01-24T09:48:40.179Z,59.22
2019-01-24T09:51:11.346Z,59.19
2019-01-24T09:53:42.785Z,59.19
2019-01-24T09:56:14.233Z,59.19
2019-01-24T09:58:45.616Z,59.16
2019-01-24T10:01:17.371Z,59.13
2019-01-24T10:03:48.922Z,58.98
2019-01-24T10:06:20.354Z,59.05
2019-01-24T10:08:51.561Z,59.00
2019-01-24T10:11:23.615Z,58.81
2019-01-24T10:13:56.423Z,58.63
2019-01-24T10:16:27.778Z,58.77
2019-01-24T10:18:59.046Z,58.80
2019-01-24T10:21:30.205Z,58.83
2019-01-24T10:24:01.524Z,58.83
2019-01-24T10:26:32.802Z,58.84
2019-01-24T10:29:04.019Z,58.85
2019-01-24T10:31:35.328Z,58.71
2019-01-24T10:34:06.534Z,58.77
2019-01-24T10:36:42.977Z,58.81
2019-01-24T10:39:11.155Z,58.82
2019-01-24T10:41:42.399Z,58.78
2019-01-24T10:44:13.741Z,58.59
2019-01-24T10:46:45.088Z,58.60
2019-01-24T10:49:16.299Z,58.63
2019-01-24T10:51:47.700Z,58.65
2019-01-24T10:54:18.907Z,58.55
2019-01-24T10:56:50.156Z,58.51
2019-01-24T10:59:21.517Z,58.52
2019-01-24T11:01:55.465Z,58.56
2019-01-24T11:04:25.932Z,58.56
2019-01-24T11:06:57.240Z,58.55
2019-01-24T11:09:28.540Z,58.57
2019-01-24T11:11:59.938Z,58.52
2019-01-24T11:14:31.244Z,58.39
2019-01-24T11:17:02.943Z,58.57
2019-01-24T11:19:34.226Z,58.60
2019-01-24T11:22:05.770Z,58.59
2019-01-24T11:24:37.091Z,58.54
2019-01-24T11:27:08.315Z,58.38
2019-01-24T11:29:39.623Z,58.43
2019-01-24T11:32:10.958Z,58.38
2019-01-24T11:34:42.374Z,58.42
2019-01-24T11:37:13.629Z,58.38
2019-01-24T11:39:44.942Z,57.99
2019-01-24T11:42:16.229Z,58.20
2019-01-24T11:44:47.907Z,58.23
2019-01-24T11:47:19.273Z,58.23
2019-01-24T11:49:51.688Z,58.05
2019-01-24T11:52:22.893Z,58.13
2019-01-24T11:54:54.236Z,58.13
2019-01-24T11:57:25.467Z,58.07
2019-01-24T11:59:56.758Z,58.09
2019-01-24T12:02:28.108Z,58.06
2019-01-24T12:04:59.404Z,58.05
2019-01-24T12:07:30.626Z,58.00
2019-01-24T12:10:01.868Z,57.96
2019-01-24T12:12:33.252Z,57.82
2019-01-24T12:15:04.486Z,57.78
2019-01-24T12:17:35.833Z,57.68
2019-01-24T12:20:10.336Z,57.75
2019-01-24T12:22:41.650Z,57.68
2019-01-24T12:25:12.925Z,57.61
2019-01-24T12:27:44.146Z,57.62
2019-01-24T12:30:27.452Z,57.66
2019-01-24T12:32:59.230Z,57.68
2019-01-24T12:35:30.646Z,57.63
2019-01-24T12:38:02.025Z,57.56
2019-01-24T12:40:33.348Z,57.65
2019-01-24T12:43:05.397Z,57.68
2019-01-24T12:45:37.655Z,57.61
2019-01-24T12:48:08.888Z,57.43
2019-01-24T12:50:40.071Z,57.46
2019-01-24T12:53:11.217Z,57.47
2019-01-24T12:55:42.482Z,57.39
2019-01-24T12:58:13.781Z,57.35
2019-01-24T13:00:45.041Z,57.42
2019-01-24T13:03:16.256Z,57.42
2019-01-24T13:05:47.469Z,57.46
2019-01-24T13:08:18.727Z,57.36
2019-01-24T13:10:50.202Z,57.34
2019-01-24T13:13:21.784Z,57.31
2019-01-24T13:15:53.137Z,57.33
2019-01-24T13:18:24.499Z,57.33
2019-01-24T13:20:55.838Z,57.25
2019-01-24T13:23:28.266Z,57.11
2019-01-24T13:25:59.606Z,57.17
2019-01-24T13:28:30.868Z,57.22
2019-01-24T13:31:02.381Z,57.25
2019-01-24T13:33:33.695Z,57.20
2019-01-24T13:36:05.007Z,57.14
2019-01-24T13:38:36.785Z,57.05
2019-01-24T13:41:08.075Z,57.09
2019-01-24T13:43:39.622Z,56.99
2019-01-24T13:46:11.110Z,56.93
2019-01-24T13:48:42.513Z,56.98
2019-01-24T13:51:14.009Z,57.02
2019-01-24T13:53:45.458Z,56.88
2019-01-24T13:56:16.860Z,56.92
2019-01-24T13:58:48.257Z,56.92
2019-01-24T14:01:19.502Z,56.92
2019-01-24T14:04:15.104Z,56.94
2019-01-24T14:06:46.426Z,56.88
2019-01-24T14:09:17.664Z,56.80
2019-01-24T14:11:49.144Z,56.90
2019-01-24T14:14:23.680Z,56.68
2019-01-24T14:16:55.027Z,56.83
2019-01-24T14:19:26.365Z,56.83
2019-01-24T14:21:57.731Z,56.87
2019-01-24T14:24:30.206Z,56.90
2019-01-24T14:27:02.871Z,56.92
2019-01-24T14:29:34.285Z,56.86
2019-01-24T14:32:14.572Z,56.86
2019-01-24T14:34:46.957Z,56.88
2019-01-24T14:37:18.382Z,56.92
2019-01-24T14:39:49.778Z,56.94
2019-01-24T14:42:21.113Z,56.87
2019-01-24T14:44:52.478Z,56.90
2019-01-24T14:47:23.913Z,56.91
2019-01-24T14:49:55.087Z,56.75
2019-01-24T14:52:26.543Z,56.74
2019-01-24T14:54:57.889Z,56.72
2019-01-24T14:57:29.139Z,56.72
2019-01-24T15:00:01.321Z,56.77
2019-01-24T15:02:36.563Z,56.81
2019-01-24T15:05:09.533Z,56.84
2019-01-24T15:07:47.068Z,56.75
2019-01-24T15:10:16.282Z,56.72
2019-01-24T15:12:47.484Z,56.78
2019-01-24T15:15:19.105Z,56.77
2019-01-24T15:17:51.640Z,56.75
2019-01-24T15:20:22.838Z,56.73
2019-01-24T15:22:54.111Z,56.77
2019-01-24T15:25:25.291Z,56.78
2019-01-24T15:27:56.616Z,56.77
2019-01-24T15:30:28.974Z,56.77
2019-01-24T15:33:00.178Z,56.78
2019-01-24T15:35:31.511Z,56.76
2019-01-24T15:38:02.838Z,56.76
2019-01-24T15:40:34.074Z,56.75
2019-01-24T15:43:05.795Z,56.64
2019-01-24T15:45:39.781Z,56.67
2019-01-24T15:48:11.541Z,56.72
2019-01-24T15:50:43.091Z,56.72
2019-01-24T15:53:14.398Z,56.71
2019-01-24T15:55:45.908Z,56.75
2019-01-24T15:58:17.243Z,56.74
2019-01-24T16:00:50.112Z,56.73
2019-01-24T16:03:21.524Z,56.74
2019-01-24T16:05:52.894Z,56.68
2019-01-24T16:08:26.019Z,56.73
2019-01-24T16:10:59.650Z,56.70
2019-01-24T16:13:31.956Z,56.70
2019-01-24T16:16:06.488Z,56.71
2019-01-24T16:18:40.641Z,56.72
2019-01-24T16:21:15.091Z,56.75
2019-01-24T16:23:46.514Z,56.71
2019-01-24T16:26:17.755Z,56.67
2019-01-24T16:28:49.015Z,56.72
2019-01-24T16:31:20.556Z,56.77
2019-01-24T16:33:56.277Z,56.76
2019-01-24T16:36:27.944Z,56.76
2019-01-24T16:39:00.555Z,56.73
2019-01-24T16:41:32.113Z,56.73
2019-01-24T16:44:03.644Z,56.73
2019-01-24T16:46:35.006Z,56.71
2019-01-24T16:49:06.241Z,56.72
2019-01-24T16:51:41.230Z,56.68
2019-01-24T16:54:13.851Z,56.70
2019-01-24T16:56:45.260Z,56.74
2019-01-24T16:59:16.470Z,56.76
2019-01-24T17:01:47.865Z,56.76
2019-01-24T17:04:19.215Z,56.78
2019-01-24T17:06:50.729Z,56.81
2019-01-24T17:09:23.417Z,56.90
2019-01-24T17:11:56.186Z,56.87
2019-01-24T17:14:32.219Z,56.84
2019-01-24T17:17:10.788Z,56.85
2019-01-24T17:19:42.906Z,56.79
2019-01-24T17:22:14.234Z,56.71
2019-01-24T17:24:45.880Z,56.80
2019-01-24T17:27:17.337Z,56.83
2019-01-24T17:29:48.784Z,56.87
2019-01-24T17:32:20.141Z,56.83
2019-01-24T17:34:51.502Z,56.83
2019-01-24T17:37:22.825Z,56.79
2019-01-24T17:39:54.357Z,56.79
2019-01-24T17:42:25.758Z,56.75
2019-01-24T17:44:57.296Z,56.84
2019-01-24T17:47:28.784Z,56.82
2019-01-24T17:50:00.090Z,56.83
2019-01-24T17:52:31.559Z,56.83
2019-01-24T17:55:02.912Z,56.69
2019-01-24T17:57:34.360Z,56.79
2019-01-24T18:00:08.807Z,56.83
2019-01-24T18:02:40.154Z,56.84
2019-01-24T18:05:11.612Z,56.83
2019-01-24T18:07:42.996Z,56.82
2019-01-24T18:10:17.537Z,56.73
2019-01-24T18:12:49.134Z,56.82
2019-01-24T18:15:26.690Z,56.69
2019-01-24T18:17:58.034Z,56.77
2019-01-24T18:20:35.425Z,56.79
2019-01-24T18:23:06.874Z,56.75
2019-01-24T18:25:38.316Z,56.79
2019-01-24T18:28:11.209Z,56.80
2019-01-24T18:30:44.287Z,56.78
2019-01-24T18:33:15.701Z,56.76
2019-01-24T18:35:46.931Z,56.76
2019-01-24T18:38:18.179Z,56.80
2019-01-24T18:40:49.644Z,56.85
2019-01-24T18:43:26.095Z,56.83
2019-01-24T18:45:59.862Z,56.77
2019-01-24T18:48:31.065Z,56.86
2019-01-24T18:51:02.303Z,56.82
2019-01-24T18:53:33.500Z,56.83
2019-01-24T18:56:04.830Z,56.87
2019-01-24T18:58:36.072Z,56.84
2019-01-24T19:01:07.420Z,56.91
2019-01-24T19:03:38.747Z,56.90
2019-01-24T19:06:10.107Z,56.87
2019-01-24T19:08:49.713Z,56.88
2019-01-24T19:11:21.274Z,56.91
2019-01-24T19:13:52.687Z,56.91
2019-01-24T19:16:24.005Z,56.93
2019-01-24T19:18:55.200Z,56.96
2019-01-24T19:21:26.526Z,56.91
2019-01-24T19:23:57.968Z,56.88
2019-01-24T19:26:29.274Z,56.91
2019-01-24T19:29:00.769Z,56.91
2019-01-24T19:31:32.086Z,56.88
2019-01-24T19:34:03.409Z,56.88
2019-01-24T19:36:34.685Z,56.86
2019-01-24T19:39:08.828Z,56.90
2019-01-24T19:41:40.316Z,56.88
2019-01-24T19:44:15.613Z,56.88
2019-01-24T19:46:46.226Z,56.92
2019-01-24T19:49:18.920Z,56.92
2019-01-24T19:51:50.156Z,56.93
2019-01-24T19:54:22.786Z,56.88
2019-01-24T19:56:54.565Z,56.87
2019-01-24T19:59:29.200Z,56.91
2019-01-24T20:02:00.535Z,56.92
2019-01-24T20:04:31.701Z,56.95
2019-01-24T20:07:02.921Z,56.95
2019-01-24T20:09:34.264Z,56.99
2019-01-24T20:12:05.842Z,56.99
2019-01-24T20:14:37.102Z,57.01
2019-01-24T20:17:08.431Z,57.02
2019-01-24T20:19:39.850Z,57.01
2019-01-24T20:22:11.087Z,57.04
2019-01-24T20:24:42.488Z,57.05
2019-01-24T20:27:13.744Z,57.03
2019-01-24T20:29:45.206Z,57.04
2019-01-24T20:32:17.552Z,57.04
2019-01-24T20:34:48.819Z,57.03
2019-01-24T20:37:20.158Z,57.04
2019-01-24T20:39:51.381Z,57.03
2019-01-24T20:42:22.666Z,57.04
2019-01-24T20:44:54.098Z,56.99
2019-01-24T20:47:25.179Z,57.01
2019-01-24T20:49:56.403Z,57.03
2019-01-24T20:52:27.750Z,57.05
2019-01-24T20:54:59.141Z,57.04
2019-01-24T20:57:32.573Z,57.04
2019-01-24T21:00:05.966Z,57.06
2019-01-24T21:02:37.503Z,57.11
2019-01-24T21:05:09.921Z,57.08
2019-01-24T21:07:41.415Z,57.10
2019-01-24T21:10:18.615Z,57.12
2019-01-24T21:12:52.975Z,57.18
2019-01-24T21:15:28.151Z,57.18
2019-01-24T21:18:01.810Z,57.21
2019-01-24T21:20:43.304Z,57.19
2019-01-24T21:23:18.175Z,57.22
2019-01-24T21:25:50.152Z,57.22
2019-01-24T21:28:21.631Z,57.23
2019-01-24T21:30:53.195Z,57.23
2019-01-24T21:33:24.510Z,57.28
2019-01-24T21:35:58.299Z,57.27
2019-01-24T21:38:29.626Z,57.26
2019-01-24T21:41:01.699Z,57.25
2019-01-24T21:43:33.039Z,57.27
2019-01-24T21:46:04.772Z,57.29
2019-01-24T21:48:38.626Z,57.27
2019-01-24T21:51:11.295Z,57.29
2019-01-24T21:53:42.782Z,57.31
2019-01-24T21:56:14.124Z,57.33
2019-01-24T21:58:47.323Z,57.35
2019-01-24T22:01:20.016Z,57.35
2019-01-24T22:03:54.810Z,57.36
2019-01-24T22:06:45.799Z,57.40
2019-01-24T22:09:17.443Z,57.37
2019-01-24T22:11:49.225Z,57.37
2019-01-24T22:14:22.935Z,57.39
2019-01-24T22:16:56.307Z,57.41
2019-01-24T22:19:27.562Z,57.41
2019-01-24T22:22:00.884Z,57.42
2019-01-24T22:24:34.053Z,57.44
2019-01-24T22:27:05.457Z,57.46
2019-01-24T22:29:36.792Z,57.47
2019-01-24T22:32:10.831Z,57.46
2019-01-24T22:34:49.622Z,57.46
2019-01-24T22:37:20.856Z,57.46
2019-01-24T22:39:52.250Z,57.47
2019-01-24T22:42:23.719Z,57.46
2019-01-24T22:44:57.180Z,57.49
2019-01-24T22:47:33.644Z,57.53
2019-01-24T22:50:09.503Z,57.54
2019-01-24T22:52:43.058Z,57.54
2019-01-24T22:55:18.814Z,57.57
2019-01-24T22:57:50.294Z,57.56
2019-01-24T23:00:49.158Z,57.56
2019-01-24T23:03:43.793Z,57.56
2019-01-24T23:06:15.548Z,57.59
2019-01-24T23:08:48.016Z,57.61
2019-01-24T23:11:21.358Z,57.65
2019-01-24T23:13:52.911Z,57.65
2019-01-24T23:16:26.346Z,57.66
2019-01-24T23:18:57.789Z,57.66
2019-01-24T23:21:29.139Z,57.59
2019-01-24T23:24:00.424Z,57.60
2019-01-24T23:26:34.306Z,57.63
2019-01-24T23:29:06.296Z,57.66
2019-01-24T23:31:40.264Z,57.67
2019-01-24T23:34:11.711Z,57.67
2019-01-24T23:36:45.828Z,57.70
2019-01-24T23:39:17.495Z,57.67
2019-01-24T23:41:50.532Z,57.70
2019-01-24T23:44:21.881Z,57.67
2019-01-24T23:46:57.634Z,57.71
2019-01-24T23:49:28.928Z,57.69
2019-01-24T23:52:02.677Z,57.73
2019-01-24T23:54:34.984Z,57.73
2019-01-24T23:57:06.334Z,57.73
2019-01-24T23:59:37.744Z,57.75
